Time;durP1;ratioP1;P1;durP2;ratioP2;P2;SDS_P1;SDS_P2;PMS_P1;PMS_P2;Temp;Humidity;BMP_temperature;BMP_pressure;BME280_temperature;BME280_humidity;BME280_pressure;Samples;Min_cycle;Max_cycle;Signal;HPM_P1;HPM_P2
2021/03/12 00:00:37;;;;;;;10.3;7.9;;;;;;;6.49;71.83008;97373.64;;;;
2021/03/12 00:10:35;;;;;;;7.1;5.6;;;;;;;6.55;71.40332;97375.08;;;;
2021/03/12 00:20:33;;;;;;;9.6;5.7;;;;;;;6.56;71.06934;97376.63;;;;
2021/03/12 00:30:32;;;;;;;7.3;4.6;;;;;;;6.61;70.0918;97389.88;;;;
2021/03/12 00:40:30;;;;;;;7.1;4;;;;;;;6.6;70.11328;97420.42;;;;
2021/03/12 00:50:28;;;;;;;9;5.2;;;;;;;6.59;69.7627;97405.48;;;;
2021/03/12 01:00:27;;;;;;;7.2;4.4;;;;;;;6.52;70.44629;97402.47;;;;
2021/03/12 01:10:25;;;;;;;10.3;6.3;;;;;;;6.45;72.32715;97412.83;;;;
2021/03/12 01:20:23;;;;;;;7.9;4.8;;;;;;;6.02;80.22852;97418.75;;;;
2021/03/12 01:30:22;;;;;;;9.4;6.3;;;;;;;5.68;86.31152;97415.83;;;;
2021/03/12 01:40:20;;;;;;;8.8;6.4;;;;;;;5.39;93.84766;97415.44;;;;
2021/03/12 01:50:18;;;;;;;7.6;6;;;;;;;5.21;95.97949;97389.67;;;;
2021/03/12 02:00:16;;;;;;;8.4;5.5;;;;;;;5.05;96.87793;97414.06;;;;
2021/03/12 02:10:14;;;;;;;8.3;5;;;;;;;5.07;97.08984;97403.06;;;;
2021/03/12 02:20:13;;;;;;;11.2;6;;;;;;;5.07;97.0918;97409.2;;;;
2021/03/12 02:30:11;;;;;;;5.8;4;;;;;;;5.03;96.53906;97404.78;;;;
2021/03/12 02:40:09;;;;;;;7.5;4.2;;;;;;;4.91;95.26074;97397.28;;;;
2021/03/12 02:50:07;;;;;;;5.6;3.8;;;;;;;4.88;94.47949;97392.55;;;;
2021/03/12 03:00:05;;;;;;;6.6;4.1;;;;;;;4.85;94.16309;97389.68;;;;
2021/03/12 03:20:01;;;;;;;4.2;2.4;;;;;;;4.95;92.23438;97352.08;;;;
2021/03/12 03:29:59;;;;;;;4.5;3.2;;;;;;;4.97;92.29395;97365.91;;;;
2021/03/12 03:39:58;;;;;;;4.5;2.7;;;;;;;4.92;92.0625;97358.82;;;;
2021/03/12 03:49:56;;;;;;;5.1;3.6;;;;;;;4.92;92.22852;97366.83;;;;
2021/03/12 03:59:54;;;;;;;5.1;2.7;;;;;;;4.81;92.66895;97375.34;;;;
2021/03/12 04:09:52;;;;;;;3.8;2.2;;;;;;;4.82;92.42969;97372.39;;;;
2021/03/12 04:19:50;;;;;;;4.7;2.3;;;;;;;4.77;92.18555;97383.16;;;;
2021/03/12 04:29:48;;;;;;;3.8;2.6;;;;;;;4.62;92.61816;97401.38;;;;
2021/03/12 04:39:46;;;;;;;4.8;2.9;;;;;;;4.37;92.91895;97395.42;;;;
2021/03/12 04:49:44;;;;;;;5.1;2.7;;;;;;;4.31;93.87891;97422.49;;;;
2021/03/12 04:59:42;;;;;;;6.2;4;;;;;;;4.26;94.59766;97451.94;;;;
2021/03/12 05:09:40;;;;;;;6.1;3.6;;;;;;;4.24;95.56836;97428.22;;;;
2021/03/12 05:19:38;;;;;;;7.2;4.8;;;;;;;4.32;95.50684;97421.41;;;;
2021/03/12 05:29:36;;;;;;;7;5.3;;;;;;;4.56;95.73926;97444.16;;;;
2021/03/12 05:39:34;;;;;;;7;4.7;;;;;;;4.82;94.76465;97465.02;;;;
2021/03/12 05:49:32;;;;;;;9.8;5;;;;;;;5.01;94.5752;97487.05;;;;
2021/03/12 05:59:31;;;;;;;8.7;5.2;;;;;;;5.45;92.62988;97467.66;;;;
2021/03/12 06:09:29;;;;;;;6.7;4.5;;;;;;;5.67;91.24316;97482.95;;;;
2021/03/12 06:19:27;;;;;;;9.4;5.5;;;;;;;5.94;89.14258;97514.95;;;;
2021/03/12 06:29:25;;;;;;;9.5;5.2;;;;;;;6.18;88.48242;97536.84;;;;
2021/03/12 06:39:23;;;;;;;13.7;5.8;;;;;;;6.55;86.86523;97565.91;;;;
2021/03/12 06:49:22;;;;;;;8.8;5.6;;;;;;;6.94;85.09863;97577.78;;;;
2021/03/12 06:59:20;;;;;;;9.5;5.5;;;;;;;7.11;84.10449;97590.45;;;;
2021/03/12 07:09:18;;;;;;;6.5;4;;;;;;;7.23;81.89453;97620.92;;;;
2021/03/12 07:19:17;;;;;;;12.2;7.3;;;;;;;7.37;80.75781;97612.77;;;;
2021/03/12 07:29:15;;;;;;;6.5;4.9;;;;;;;7.68;78.86816;97621.55;;;;
2021/03/12 07:39:13;;;;;;;6;3.7;;;;;;;7.92;76.63379;97655.98;;;;
2021/03/12 07:49:27;;;;;;;7.6;3.5;;;;;;;7.98;75.61328;97663.57;;;;
2021/03/12 07:59:10;;;;;;;6.4;4.1;;;;;;;8.09;75.35156;97677.48;;;;
2021/03/12 08:09:23;;;;;;;5.1;2.3;;;;;;;7.76;77.98633;97666.38;;;;
2021/03/12 08:19:32;;;;;;;5.4;3.8;;;;;;;7.85;77.38379;97669.86;;;;
2021/03/12 08:29:35;;;;;;;6.3;2.9;;;;;;;8.26;77.33496;97698.98;;;;
2021/03/12 08:39:24;;;;;;;7.9;2;;;;;;;8.22;75.6084;97713.36;;;;
2021/03/12 08:49:08;;;;;;;5.3;2.3;;;;;;;8.7;75.51465;97714.07;;;;
2021/03/12 08:59:01;;;;;;;4.9;2.3;;;;;;;8.16;76.24023;97728.81;;;;
2021/03/12 09:09:00;;;;;;;5.9;3.1;;;;;;;7.78;77.57422;97760.72;;;;
2021/03/12 09:18:58;;;;;;;6.3;2.4;;;;;;;7.33;78.51172;97768.05;;;;
2021/03/12 09:28:57;;;;;;;8.9;3.6;;;;;;;6.83;81.66211;97796.85;;;;
2021/03/12 09:38:55;;;;;;;5.7;2.6;;;;;;;6.21;84.73242;97821.73;;;;
2021/03/12 09:48:53;;;;;;;2.9;1;;;;;;;5.71;89.78613;97840.26;;;;
2021/03/12 09:58:52;;;;;;;3.9;2.4;;;;;;;6.11;89.37988;97838.75;;;;
2021/03/12 10:08:50;;;;;;;6.2;3.4;;;;;;;6.26;90.45703;97849.17;;;;
2021/03/12 10:18:48;;;;;;;6.7;3.7;;;;;;;6.94;88.16699;97859.03;;;;
2021/03/12 10:28:46;;;;;;;5.7;3.5;;;;;;;7.3;85.16016;97875.08;;;;
2021/03/12 10:38:45;;;;;;;9.2;5.2;;;;;;;7.75;82.1377;97878.56;;;;
2021/03/12 10:48:43;;;;;;;6;3.6;;;;;;;8;79.19336;97853.78;;;;
2021/03/12 10:58:42;;;;;;;9;4.1;;;;;;;8.01;77.62598;97847.32;;;;
2021/03/12 11:08:40;;;;;;;6.1;3.5;;;;;;;7.89;75.85547;97847.88;;;;
2021/03/12 11:18:39;;;;;;;7.2;3.5;;;;;;;6.57;88.25977;97921.63;;;;
2021/03/12 11:28:37;;;;;;;2.7;1.1;;;;;;;4.41;96.95313;97951.28;;;;
2021/03/12 11:38:35;;;;;;;3.2;1.3;;;;;;;3.73;100;97971.91;;;;
2021/03/12 11:48:33;;;;;;;6.8;1.9;;;;;;;4.37;100;97960.16;;;;
2021/03/12 11:58:31;;;;;;;7.4;4.6;;;;;;;5.49;100;97965.69;;;;
2021/03/12 12:08:29;;;;;;;9.2;4.9;;;;;;;5.33;100;97948.3;;;;
2021/03/12 12:18:27;;;;;;;6.5;4.3;;;;;;;5.75;100;97944.73;;;;
2021/03/12 12:28:25;;;;;;;8.7;6;;;;;;;6.71;97.6582;97930.45;;;;
2021/03/12 12:38:24;;;;;;;10.2;4.5;;;;;;;7.09;90.59668;97947.89;;;;
2021/03/12 12:48:22;;;;;;;9.2;4.7;;;;;;;7.24;85.27246;97938.73;;;;
2021/03/12 12:58:20;;;;;;;6.7;4.7;;;;;;;8.2;82.17676;97938.33;;;;
2021/03/12 13:08:19;;;;;;;5.2;3;;;;;;;8.36;72.91699;97956.48;;;;
2021/03/12 13:18:17;;;;;;;9.2;5.1;;;;;;;7.58;78.12012;97989.18;;;;
2021/03/12 13:28:16;;;;;;;4.3;2;;;;;;;6.32;83.33008;97997.83;;;;
2021/03/12 13:38:14;;;;;;;4.1;2.4;;;;;;;5.26;91.49121;98026.13;;;;
2021/03/12 13:48:12;;;;;;;5.8;3.5;;;;;;;5.74;91.98047;98009.97;;;;
2021/03/12 13:58:11;;;;;;;4.5;3.1;;;;;;;6.05;88.55664;98003.91;;;;
2021/03/12 14:08:09;;;;;;;7.5;4;;;;;;;6.69;86.32129;98001.47;;;;
2021/03/12 14:18:07;;;;;;;9.4;4.5;;;;;;;6.82;86.16016;97993.45;;;;
2021/03/12 14:28:07;;;;;;;7.3;5.9;;;;;;;7.19;83.66211;97996.99;;;;
2021/03/12 14:38:06;;;;;;;10.3;7.7;;;;;;;7.2;82.50391;97996.7;;;;
2021/03/12 14:48:02;;;;;;;12.2;10.1;;;;;;;7.7;80.30469;97984.09;;;;
2021/03/12 14:58:01;;;;;;;15.1;11.9;;;;;;;8.17;74.79297;97977.33;;;;
2021/03/12 15:07:59;;;;;;;10.6;6.4;;;;;;;8.08;74.29492;97989.91;;;;
2021/03/12 15:27:56;;;;;;;5.1;2.8;;;;;;;7.77;67.86328;97984.47;;;;
2021/03/12 15:37:54;;;;;;;7.9;4.6;;;;;;;7.62;67.72852;97987.48;;;;
2021/03/12 15:47:53;;;;;;;11.9;9.7;;;;;;;8.38;66.94629;97989.17;;;;
2021/03/12 15:57:51;;;;;;;13.5;8.8;;;;;;;8.7;63.65918;97998.81;;;;
2021/03/12 16:07:50;;;;;;;14;11.6;;;;;;;8.47;64.05371;98005.31;;;;
2021/03/12 16:17:49;;;;;;;9.9;5.8;;;;;;;7.83;64.31836;98012.75;;;;
2021/03/12 16:27:47;;;;;;;21.9;15.1;;;;;;;7.02;67.28711;98014.48;;;;
2021/03/12 16:37:46;;;;;;;16.2;9;;;;;;;6.47;68.625;98024.34;;;;
2021/03/12 16:47:44;;;;;;;20.6;8.8;;;;;;;5.88;70.11914;98034.93;;;;
2021/03/12 16:57:42;;;;;;;14.5;9.5;;;;;;;5.31;72.87305;98052;;;;
2021/03/12 17:07:40;;;;;;;16.4;12.7;;;;;;;4.76;74.71777;98058.73;;;;
2021/03/12 17:17:39;;;;;;;16;9.8;;;;;;;4.53;78.23047;98069.11;;;;
2021/03/12 17:27:37;;;;;;;13.2;10.4;;;;;;;4.34;78.44824;98075.42;;;;
2021/03/12 17:37:35;;;;;;;16.9;9.9;;;;;;;4.19;78.43359;98087;;;;
2021/03/12 17:47:33;;;;;;;14.6;10.4;;;;;;;4.06;79.45313;98095.63;;;;
2021/03/12 17:57:31;;;;;;;16;10.2;;;;;;;3.88;79.28906;98091.75;;;;
2021/03/12 18:07:29;;;;;;;20.7;11.4;;;;;;;3.79;79.41504;98092.58;;;;
2021/03/12 18:17:27;;;;;;;14.4;10.6;;;;;;;3.91;78.33887;98083.19;;;;
2021/03/12 18:27:25;;;;;;;20.2;9.4;;;;;;;3.89;78.12305;98097.84;;;;
2021/03/12 18:37:23;;;;;;;13.3;9.8;;;;;;;3.75;78.56543;98104.89;;;;
2021/03/12 18:47:21;;;;;;;19.3;11;;;;;;;3.81;77.71973;98099.25;;;;
2021/03/12 18:57:19;;;;;;;15.5;11.2;;;;;;;3.98;77.01758;98090.88;;;;
2021/03/12 19:07:17;;;;;;;22.9;12.8;;;;;;;3.95;76.9248;98084.23;;;;
2021/03/12 19:17:15;;;;;;;15.8;14.1;;;;;;;3.87;77.4873;98086.67;;;;
2021/03/12 19:27:13;;;;;;;16.7;13.9;;;;;;;3.73;77.88281;98089.16;;;;
2021/03/12 19:37:11;;;;;;;18.2;12;;;;;;;3.64;77.73535;98088.16;;;;
2021/03/12 19:47:08;;;;;;;18.6;11.2;;;;;;;3.55;77.24219;98085.25;;;;
2021/03/12 19:57:08;;;;;;;24.3;13.8;;;;;;;3.5;76.95313;98089.82;;;;
2021/03/12 20:07:07;;;;;;;18.6;15.5;;;;;;;3.41;77.9707;98089.58;;;;
2021/03/12 20:17:02;;;;;;;24.7;17.5;;;;;;;3.02;79.62793;98086.78;;;;
2021/03/12 20:27:00;;;;;;;32.1;19.7;;;;;;;2.83;80.14648;98096.42;;;;
2021/03/12 20:36:58;;;;;;;25.8;15.1;;;;;;;2.73;81.12207;98085;;;;
2021/03/12 20:46:56;;;;;;;18.2;13.1;;;;;;;2.5;81.36621;98083.68;;;;
2021/03/12 20:56:55;;;;;;;13.3;10.4;;;;;;;2.71;81.1084;98085.25;;;;
2021/03/12 21:06:51;;;;;;;13.4;9.2;;;;;;;3.03;78.38965;98088.38;;;;
2021/03/12 21:16:49;;;;;;;17.4;8.9;;;;;;;3.17;77.77051;98082.48;;;;
2021/03/12 21:26:47;;;;;;;16.9;10;;;;;;;3.11;77.34863;98083.57;;;;
2021/03/12 21:36:45;;;;;;;16.3;11.6;;;;;;;2.99;77.89453;98070.55;;;;
2021/03/12 21:46:43;;;;;;;19.9;12.3;;;;;;;2.9;78.73145;98067.66;;;;
2021/03/12 21:56:41;;;;;;;15.9;10.4;;;;;;;2.71;78.92578;98057.88;;;;
2021/03/12 22:06:38;;;;;;;16.1;9.5;;;;;;;2.71;78.49414;98039.25;;;;
2021/03/12 22:16:36;;;;;;;15.8;9.9;;;;;;;2.71;79.21582;98037.36;;;;
2021/03/12 22:26:34;;;;;;;17.7;12.5;;;;;;;2.74;78.63574;98042.14;;;;
2021/03/12 22:36:32;;;;;;;12.2;7.4;;;;;;;2.71;78.0293;98039.25;;;;
2021/03/12 22:46:29;;;;;;;18;9.1;;;;;;;2.7;78.21777;98027.02;;;;
2021/03/12 22:56:27;;;;;;;15.7;8.2;;;;;;;2.6;78.43262;98033.16;;;;
2021/03/12 23:06:25;;;;;;;14.5;7.7;;;;;;;2.63;78.81348;98035.27;;;;
2021/03/12 23:16:23;;;;;;;14.8;7.8;;;;;;;2.73;77.11523;98031.79;;;;
2021/03/12 23:26:20;;;;;;;12.9;7.1;;;;;;;2.7;77.50879;98025.16;;;;
2021/03/12 23:36:18;;;;;;;18.3;7.4;;;;;;;2.74;77.42773;98031.5;;;;
2021/03/12 23:46:16;;;;;;;15.3;7.7;;;;;;;2.71;76.91211;98018.74;;;;
2021/03/12 23:56:14;;;;;;;10.7;4.8;;;;;;;2.61;76.77246;98018.77;;;;
